sensor_id;sensor_type;location;lat;lon;timestamp;P1;P2;P0
64138;PMS5003;50435;43.700;-79.318;2022-12-04T00:01:01;1;1;
64138;PMS5003;50435;43.700;-79.318;2022-12-04T00:01:13;1;1;
64138;PMS5003;50435;43.700;-79.318;2022-12-04T00:03:42;1;1;
64138;PMS5003;50435;43.700;-79.318;2022-12-04T00:06:10;1;1;
64138;PMS5003;50435;43.700;-79.318;2022-12-04T00:08:39;0;0;
64138;PMS5003;50435;43.700;-79.318;2022-12-04T00:11:08;2;2;
64138;PMS5003;50435;43.700;-79.318;2022-12-04T00:13:37;1;1;
64138;PMS5003;50435;43.700;-79.318;2022-12-04T00:16:06;1;1;
64138;PMS5003;50435;43.700;-79.318;2022-12-04T00:18:36;1;1;
64138;PMS5003;50435;43.700;-79.318;2022-12-04T00:21:03;2;0;
64138;PMS5003;50435;43.700;-79.318;2022-12-04T00:23:32;3;1;
64138;PMS5003;50435;43.700;-79.318;2022-12-04T00:26:00;1;1;
64138;PMS5003;50435;43.700;-79.318;2022-12-04T00:30:44;2;2;
64138;PMS5003;50435;43.700;-79.318;2022-12-04T00:33:12;1;1;
64138;PMS5003;50435;43.700;-79.318;2022-12-04T00:35:40;1;1;
64138;PMS5003;50435;43.700;-79.318;2022-12-04T00:38:07;1;1;
64138;PMS5003;50435;43.700;-79.318;2022-12-04T00:40:35;1;1;
64138;PMS5003;50435;43.700;-79.318;2022-12-04T00:43:02;1;1;
64138;PMS5003;50435;43.700;-79.318;2022-12-04T00:45:29;1;1;
64138;PMS5003;50435;43.700;-79.318;2022-12-04T00:47:56;1;1;
64138;PMS5003;50435;43.700;-79.318;2022-12-04T00:50:23;1;1;
64138;PMS5003;50435;43.700;-79.318;2022-12-04T00:52:51;0;0;
64138;PMS5003;50435;43.700;-79.318;2022-12-04T00:55:18;1;1;
64138;PMS5003;50435;43.700;-79.318;2022-12-04T00:57:46;2;2;
64138;PMS5003;50435;43.700;-79.318;2022-12-04T01:00:13;2;1;
64138;PMS5003;50435;43.700;-79.318;2022-12-04T01:02:41;1;1;
64138;PMS5003;50435;43.700;-79.318;2022-12-04T01:05:08;1;1;
64138;PMS5003;50435;43.700;-79.318;2022-12-04T01:07:36;1;1;
64138;PMS5003;50435;43.700;-79.318;2022-12-04T01:10:04;2;2;
64138;PMS5003;50435;43.700;-79.318;2022-12-04T01:12:35;1;1;
64138;PMS5003;50435;43.700;-79.318;2022-12-04T01:15:03;3;3;
64138;PMS5003;50435;43.700;-79.318;2022-12-04T01:17:31;2;2;
64138;PMS5003;50435;43.700;-79.318;2022-12-04T01:19:58;1;1;
64138;PMS5003;50435;43.700;-79.318;2022-12-04T01:22:25;2;2;
64138;PMS5003;50435;43.700;-79.318;2022-12-04T01:24:54;1;1;
64138;PMS5003;50435;43.700;-79.318;2022-12-04T01:27:22;1;1;
64138;PMS5003;50435;43.700;-79.318;2022-12-04T01:29:50;1;1;
64138;PMS5003;50435;43.700;-79.318;2022-12-04T01:32:18;1;1;
64138;PMS5003;50435;43.700;-79.318;2022-12-04T01:34:45;2;2;
64138;PMS5003;50435;43.700;-79.318;2022-12-04T01:37:12;1;1;
64138;PMS5003;50435;43.700;-79.318;2022-12-04T01:39:39;1;1;
64138;PMS5003;50435;43.700;-79.318;2022-12-04T01:42:08;1;1;
64138;PMS5003;50435;43.700;-79.318;2022-12-04T01:44:37;1;1;
64138;PMS5003;50435;43.700;-79.318;2022-12-04T01:47:09;2;2;
64138;PMS5003;50435;43.700;-79.318;2022-12-04T01:49:38;2;2;
64138;PMS5003;50435;43.700;-79.318;2022-12-04T01:52:11;1;1;
64138;PMS5003;50435;43.700;-79.318;2022-12-04T01:54:43;1;1;
64138;PMS5003;50435;43.700;-79.318;2022-12-04T01:57:14;2;2;
64138;PMS5003;50435;43.700;-79.318;2022-12-04T01:59:44;2;2;
64138;PMS5003;50435;43.700;-79.318;2022-12-04T02:02:17;1;1;
64138;PMS5003;50435;43.700;-79.318;2022-12-04T02:04:47;2;2;
64138;PMS5003;50435;43.700;-79.318;2022-12-04T02:07:15;2;1;
64138;PMS5003;50435;43.700;-79.318;2022-12-04T02:09:43;2;2;
64138;PMS5003;50435;43.700;-79.318;2022-12-04T02:12:12;3;3;
64138;PMS5003;50435;43.700;-79.318;2022-12-04T02:14:49;1;1;
64138;PMS5003;50435;43.700;-79.318;2022-12-04T02:17:27;0;0;
64138;PMS5003;50435;43.700;-79.318;2022-12-04T02:20:06;1;1;
64138;PMS5003;50435;43.700;-79.318;2022-12-04T02:22:49;1;1;
64138;PMS5003;50435;43.700;-79.318;2022-12-04T02:25:34;2;2;
64138;PMS5003;50435;43.700;-79.318;2022-12-04T02:28:08;2;2;
64138;PMS5003;50435;43.700;-79.318;2022-12-04T02:30:40;1;1;
64138;PMS5003;50435;43.700;-79.318;2022-12-04T02:33:13;1;1;
64138;PMS5003;50435;43.700;-79.318;2022-12-04T02:35:45;1;1;
64138;PMS5003;50435;43.700;-79.318;2022-12-04T02:38:18;2;2;
64138;PMS5003;50435;43.700;-79.318;2022-12-04T02:40:51;0;0;
64138;PMS5003;50435;43.700;-79.318;2022-12-04T02:43:23;1;1;
64138;PMS5003;50435;43.700;-79.318;2022-12-04T02:45:56;1;1;
64138;PMS5003;50435;43.700;-79.318;2022-12-04T02:48:29;1;0;
64138;PMS5003;50435;43.700;-79.318;2022-12-04T02:51:01;3;3;
64138;PMS5003;50435;43.700;-79.318;2022-12-04T02:53:33;2;2;
64138;PMS5003;50435;43.700;-79.318;2022-12-04T02:56:05;2;2;
64138;PMS5003;50435;43.700;-79.318;2022-12-04T02:58:36;1;1;
64138;PMS5003;50435;43.700;-79.318;2022-12-04T03:01:08;1;1;
64138;PMS5003;50435;43.700;-79.318;2022-12-04T03:03:39;1;1;
64138;PMS5003;50435;43.700;-79.318;2022-12-04T03:06:07;1;1;
64138;PMS5003;50435;43.700;-79.318;2022-12-04T03:08:39;2;2;
64138;PMS5003;50435;43.700;-79.318;2022-12-04T03:11:12;1;1;
64138;PMS5003;50435;43.700;-79.318;2022-12-04T03:13:40;1;1;
64138;PMS5003;50435;43.700;-79.318;2022-12-04T03:16:12;1;1;
64138;PMS5003;50435;43.700;-79.318;2022-12-04T03:18:45;3;1;
64138;PMS5003;50435;43.700;-79.318;2022-12-04T03:21:19;2;2;
64138;PMS5003;50435;43.700;-79.318;2022-12-04T03:23:53;1;1;
64138;PMS5003;50435;43.700;-79.318;2022-12-04T03:26:25;1;1;
64138;PMS5003;50435;43.700;-79.318;2022-12-04T03:28:55;1;1;
64138;PMS5003;50435;43.700;-79.318;2022-12-04T03:31:29;1;1;
64138;PMS5003;50435;43.700;-79.318;2022-12-04T03:34:02;2;2;
64138;PMS5003;50435;43.700;-79.318;2022-12-04T03:36:34;2;2;
64138;PMS5003;50435;43.700;-79.318;2022-12-04T03:39:07;1;1;
64138;PMS5003;50435;43.700;-79.318;2022-12-04T03:41:50;1;1;
64138;PMS5003;50435;43.700;-79.318;2022-12-04T03:44:25;1;1;
64138;PMS5003;50435;43.700;-79.318;2022-12-04T03:46:59;2;2;
64138;PMS5003;50435;43.700;-79.318;2022-12-04T03:49:33;1;1;
64138;PMS5003;50435;43.700;-79.318;2022-12-04T03:52:07;1;1;
64138;PMS5003;50435;43.700;-79.318;2022-12-04T03:54:41;3;2;
64138;PMS5003;50435;43.700;-79.318;2022-12-04T03:57:14;2;2;
64138;PMS5003;50435;43.700;-79.318;2022-12-04T03:59:47;2;2;
64138;PMS5003;50435;43.700;-79.318;2022-12-04T04:02:20;1;1;
64138;PMS5003;50435;43.700;-79.318;2022-12-04T04:04:52;1;1;
64138;PMS5003;50435;43.700;-79.318;2022-12-04T04:07:23;1;1;
64138;PMS5003;50435;43.700;-79.318;2022-12-04T04:09:57;2;2;
64138;PMS5003;50435;43.700;-79.318;2022-12-04T04:12:29;2;2;
64138;PMS5003;50435;43.700;-79.318;2022-12-04T04:15:02;1;1;
64138;PMS5003;50435;43.700;-79.318;2022-12-04T04:17:35;1;1;
64138;PMS5003;50435;43.700;-79.318;2022-12-04T04:20:08;2;2;
64138;PMS5003;50435;43.700;-79.318;2022-12-04T04:22:40;1;1;
64138;PMS5003;50435;43.700;-79.318;2022-12-04T04:25:10;2;2;
64138;PMS5003;50435;43.700;-79.318;2022-12-04T04:27:41;1;1;
64138;PMS5003;50435;43.700;-79.318;2022-12-04T04:30:16;1;1;
64138;PMS5003;50435;43.700;-79.318;2022-12-04T04:32:44;2;1;
64138;PMS5003;50435;43.700;-79.318;2022-12-04T04:35:17;1;1;
64138;PMS5003;50435;43.700;-79.318;2022-12-04T04:37:50;1;1;
64138;PMS5003;50435;43.700;-79.318;2022-12-04T04:40:24;1;1;
64138;PMS5003;50435;43.700;-79.318;2022-12-04T04:43:01;1;1;
64138;PMS5003;50435;43.700;-79.318;2022-12-04T04:45:34;1;1;
64138;PMS5003;50435;43.700;-79.318;2022-12-04T04:48:06;2;2;
64138;PMS5003;50435;43.700;-79.318;2022-12-04T04:50:36;1;1;
64138;PMS5003;50435;43.700;-79.318;2022-12-04T04:53:07;2;2;
64138;PMS5003;50435;43.700;-79.318;2022-12-04T04:55:40;2;2;
64138;PMS5003;50435;43.700;-79.318;2022-12-04T04:58:10;0;0;
64138;PMS5003;50435;43.700;-79.318;2022-12-04T05:00:39;1;1;
64138;PMS5003;50435;43.700;-79.318;2022-12-04T05:03:13;1;1;
64138;PMS5003;50435;43.700;-79.318;2022-12-04T05:05:40;1;1;
64138;PMS5003;50435;43.700;-79.318;2022-12-04T05:08:07;2;2;
64138;PMS5003;50435;43.700;-79.318;2022-12-04T05:10:35;2;0;
64138;PMS5003;50435;43.700;-79.318;2022-12-04T05:13:02;1;1;
64138;PMS5003;50435;43.700;-79.318;2022-12-04T05:15:29;1;1;
64138;PMS5003;50435;43.700;-79.318;2022-12-04T05:17:57;2;2;
64138;PMS5003;50435;43.700;-79.318;2022-12-04T05:20:24;0;0;
64138;PMS5003;50435;43.700;-79.318;2022-12-04T05:22:52;2;2;
64138;PMS5003;50435;43.700;-79.318;2022-12-04T05:25:19;1;1;
64138;PMS5003;50435;43.700;-79.318;2022-12-04T05:27:47;1;1;
64138;PMS5003;50435;43.700;-79.318;2022-12-04T05:30:15;1;1;
64138;PMS5003;50435;43.700;-79.318;2022-12-04T05:32:43;2;2;
64138;PMS5003;50435;43.700;-79.318;2022-12-04T05:35:10;1;1;
64138;PMS5003;50435;43.700;-79.318;2022-12-04T05:37:37;1;1;
64138;PMS5003;50435;43.700;-79.318;2022-12-04T05:40:07;1;1;
64138;PMS5003;50435;43.700;-79.318;2022-12-04T05:42:35;1;1;
64138;PMS5003;50435;43.700;-79.318;2022-12-04T05:45:03;0;0;
64138;PMS5003;50435;43.700;-79.318;2022-12-04T05:47:31;1;1;
64138;PMS5003;50435;43.700;-79.318;2022-12-04T05:50:02;2;2;
64138;PMS5003;50435;43.700;-79.318;2022-12-04T05:52:30;2;1;
64138;PMS5003;50435;43.700;-79.318;2022-12-04T05:52:41;3;1;
64138;PMS5003;50435;43.700;-79.318;2022-12-04T05:55:08;2;2;
64138;PMS5003;50435;43.700;-79.318;2022-12-04T05:57:35;2;2;
64138;PMS5003;50435;43.700;-79.318;2022-12-04T06:00:03;2;2;
64138;PMS5003;50435;43.700;-79.318;2022-12-04T06:02:32;1;1;
64138;PMS5003;50435;43.700;-79.318;2022-12-04T06:05:00;1;1;
64138;PMS5003;50435;43.700;-79.318;2022-12-04T06:07:27;3;3;
64138;PMS5003;50435;43.700;-79.318;2022-12-04T06:09:54;2;2;
64138;PMS5003;50435;43.700;-79.318;2022-12-04T06:12:22;1;1;
64138;PMS5003;50435;43.700;-79.318;2022-12-04T06:14:49;0;0;
64138;PMS5003;50435;43.700;-79.318;2022-12-04T06:17:16;2;2;
64138;PMS5003;50435;43.700;-79.318;2022-12-04T06:19:43;1;1;
64138;PMS5003;50435;43.700;-79.318;2022-12-04T06:22:11;1;1;
64138;PMS5003;50435;43.700;-79.318;2022-12-04T06:24:38;2;2;
64138;PMS5003;50435;43.700;-79.318;2022-12-04T06:27:06;1;1;
64138;PMS5003;50435;43.700;-79.318;2022-12-04T06:29:34;1;1;
64138;PMS5003;50435;43.700;-79.318;2022-12-04T06:32:03;1;1;
64138;PMS5003;50435;43.700;-79.318;2022-12-04T06:32:13;1;1;
64138;PMS5003;50435;43.700;-79.318;2022-12-04T06:34:41;0;0;
64138;PMS5003;50435;43.700;-79.318;2022-12-04T06:37:08;2;2;
64138;PMS5003;50435;43.700;-79.318;2022-12-04T06:39:36;2;2;
64138;PMS5003;50435;43.700;-79.318;2022-12-04T06:42:03;3;3;
64138;PMS5003;50435;43.700;-79.318;2022-12-04T06:44:30;2;2;
64138;PMS5003;50435;43.700;-79.318;2022-12-04T06:46:57;2;2;
64138;PMS5003;50435;43.700;-79.318;2022-12-04T06:49:25;1;1;
64138;PMS5003;50435;43.700;-79.318;2022-12-04T06:51:52;1;1;
64138;PMS5003;50435;43.700;-79.318;2022-12-04T06:54:19;0;0;
64138;PMS5003;50435;43.700;-79.318;2022-12-04T06:56:47;2;2;
64138;PMS5003;50435;43.700;-79.318;2022-12-04T06:59:15;4;4;
64138;PMS5003;50435;43.700;-79.318;2022-12-04T07:01:42;1;1;
64138;PMS5003;50435;43.700;-79.318;2022-12-04T07:04:09;1;1;
64138;PMS5003;50435;43.700;-79.318;2022-12-04T07:06:37;3;3;
64138;PMS5003;50435;43.700;-79.318;2022-12-04T07:09:06;2;2;
64138;PMS5003;50435;43.700;-79.318;2022-12-04T07:11:36;2;1;
64138;PMS5003;50435;43.700;-79.318;2022-12-04T07:14:04;1;1;
64138;PMS5003;50435;43.700;-79.318;2022-12-04T07:16:31;2;2;
64138;PMS5003;50435;43.700;-79.318;2022-12-04T07:18:58;2;2;
64138;PMS5003;50435;43.700;-79.318;2022-12-04T07:21:26;3;2;
64138;PMS5003;50435;43.700;-79.318;2022-12-04T07:23:56;3;2;
64138;PMS5003;50435;43.700;-79.318;2022-12-04T07:26:26;3;2;
64138;PMS5003;50435;43.700;-79.318;2022-12-04T07:28:55;1;1;
64138;PMS5003;50435;43.700;-79.318;2022-12-04T07:31:25;1;1;
64138;PMS5003;50435;43.700;-79.318;2022-12-04T07:33:55;2;2;
64138;PMS5003;50435;43.700;-79.318;2022-12-04T07:36:23;2;2;
64138;PMS5003;50435;43.700;-79.318;2022-12-04T07:38:53;3;2;
64138;PMS5003;50435;43.700;-79.318;2022-12-04T07:41:21;1;1;
64138;PMS5003;50435;43.700;-79.318;2022-12-04T07:43:49;1;1;
64138;PMS5003;50435;43.700;-79.318;2022-12-04T07:46:18;1;1;
64138;PMS5003;50435;43.700;-79.318;2022-12-04T07:48:47;2;2;
64138;PMS5003;50435;43.700;-79.318;2022-12-04T07:51:15;2;2;
64138;PMS5003;50435;43.700;-79.318;2022-12-04T07:53:44;2;2;
64138;PMS5003;50435;43.700;-79.318;2022-12-04T07:56:12;2;2;
64138;PMS5003;50435;43.700;-79.318;2022-12-04T07:58:40;2;2;
64138;PMS5003;50435;43.700;-79.318;2022-12-04T08:01:09;1;1;
64138;PMS5003;50435;43.700;-79.318;2022-12-04T08:03:38;2;2;
64138;PMS5003;50435;43.700;-79.318;2022-12-04T08:06:07;1;1;
64138;PMS5003;50435;43.700;-79.318;2022-12-04T08:08:35;5;2;
64138;PMS5003;50435;43.700;-79.318;2022-12-04T08:11:04;2;2;
64138;PMS5003;50435;43.700;-79.318;2022-12-04T08:15:00;2;2;
64138;PMS5003;50435;43.700;-79.318;2022-12-04T08:17:27;2;1;
64138;PMS5003;50435;43.700;-79.318;2022-12-04T08:19:55;1;1;
64138;PMS5003;50435;43.700;-79.318;2022-12-04T08:22:22;1;1;
64138;PMS5003;50435;43.700;-79.318;2022-12-04T08:24:50;2;2;
64138;PMS5003;50435;43.700;-79.318;2022-12-04T08:27:17;2;2;
64138;PMS5003;50435;43.700;-79.318;2022-12-04T08:29:45;2;2;
64138;PMS5003;50435;43.700;-79.318;2022-12-04T08:32:13;2;2;
64138;PMS5003;50435;43.700;-79.318;2022-12-04T08:34:40;2;1;
64138;PMS5003;50435;43.700;-79.318;2022-12-04T08:37:08;1;1;
64138;PMS5003;50435;43.700;-79.318;2022-12-04T08:39:35;2;2;
64138;PMS5003;50435;43.700;-79.318;2022-12-04T08:42:03;3;2;
64138;PMS5003;50435;43.700;-79.318;2022-12-04T08:44:30;2;1;
64138;PMS5003;50435;43.700;-79.318;2022-12-04T08:46:58;2;1;
64138;PMS5003;50435;43.700;-79.318;2022-12-04T08:49:25;1;1;
64138;PMS5003;50435;43.700;-79.318;2022-12-04T08:51:52;1;1;
64138;PMS5003;50435;43.700;-79.318;2022-12-04T08:54:20;3;3;
64138;PMS5003;50435;43.700;-79.318;2022-12-04T08:56:47;1;1;
64138;PMS5003;50435;43.700;-79.318;2022-12-04T08:59:14;2;2;
64138;PMS5003;50435;43.700;-79.318;2022-12-04T09:01:42;3;2;
64138;PMS5003;50435;43.700;-79.318;2022-12-04T09:04:09;1;1;
64138;PMS5003;50435;43.700;-79.318;2022-12-04T09:06:36;3;2;
64138;PMS5003;50435;43.700;-79.318;2022-12-04T09:09:03;4;2;
64138;PMS5003;50435;43.700;-79.318;2022-12-04T09:11:31;1;1;
64138;PMS5003;50435;43.700;-79.318;2022-12-04T09:14:00;2;2;
64138;PMS5003;50435;43.700;-79.318;2022-12-04T09:16:28;3;2;
64138;PMS5003;50435;43.700;-79.318;2022-12-04T09:18:56;4;3;
64138;PMS5003;50435;43.700;-79.318;2022-12-04T09:21:24;3;2;
64138;PMS5003;50435;43.700;-79.318;2022-12-04T09:23:52;2;2;
64138;PMS5003;50435;43.700;-79.318;2022-12-04T09:26:20;1;1;
64138;PMS5003;50435;43.700;-79.318;2022-12-04T09:28:50;3;1;
64138;PMS5003;50435;43.700;-79.318;2022-12-04T09:31:19;3;3;
64138;PMS5003;50435;43.700;-79.318;2022-12-04T09:33:49;2;2;
64138;PMS5003;50435;43.700;-79.318;2022-12-04T09:36:16;2;2;
64138;PMS5003;50435;43.700;-79.318;2022-12-04T09:38:45;3;3;
64138;PMS5003;50435;43.700;-79.318;2022-12-04T09:41:18;2;2;
64138;PMS5003;50435;43.700;-79.318;2022-12-04T09:43:57;2;2;
64138;PMS5003;50435;43.700;-79.318;2022-12-04T09:46:30;3;3;
64138;PMS5003;50435;43.700;-79.318;2022-12-04T09:49:02;3;3;
64138;PMS5003;50435;43.700;-79.318;2022-12-04T09:51:36;2;2;
64138;PMS5003;50435;43.700;-79.318;2022-12-04T09:54:06;6;3;
64138;PMS5003;50435;43.700;-79.318;2022-12-04T09:56:38;2;2;
64138;PMS5003;50435;43.700;-79.318;2022-12-04T09:59:18;2;2;
64138;PMS5003;50435;43.700;-79.318;2022-12-04T10:01:50;2;1;
64138;PMS5003;50435;43.700;-79.318;2022-12-04T10:04:22;3;3;
64138;PMS5003;50435;43.700;-79.318;2022-12-04T10:06:52;3;2;
64138;PMS5003;50435;43.700;-79.318;2022-12-04T10:09:26;2;2;
64138;PMS5003;50435;43.700;-79.318;2022-12-04T10:12:05;2;2;
64138;PMS5003;50435;43.700;-79.318;2022-12-04T10:14:50;3;2;
64138;PMS5003;50435;43.700;-79.318;2022-12-04T10:17:33;2;2;
64138;PMS5003;50435;43.700;-79.318;2022-12-04T10:20:16;4;4;
64138;PMS5003;50435;43.700;-79.318;2022-12-04T10:22:58;3;2;
64138;PMS5003;50435;43.700;-79.318;2022-12-04T10:25:35;4;3;
64138;PMS5003;50435;43.700;-79.318;2022-12-04T10:28:18;3;3;
64138;PMS5003;50435;43.700;-79.318;2022-12-04T10:30:54;3;3;
64138;PMS5003;50435;43.700;-79.318;2022-12-04T10:33:27;3;3;
64138;PMS5003;50435;43.700;-79.318;2022-12-04T10:36:01;5;3;
64138;PMS5003;50435;43.700;-79.318;2022-12-04T10:38:31;4;2;
64138;PMS5003;50435;43.700;-79.318;2022-12-04T10:41:07;2;2;
64138;PMS5003;50435;43.700;-79.318;2022-12-04T10:43:42;4;4;
64138;PMS5003;50435;43.700;-79.318;2022-12-04T10:46:12;4;3;
64138;PMS5003;50435;43.700;-79.318;2022-12-04T10:48:42;6;3;
64138;PMS5003;50435;43.700;-79.318;2022-12-04T10:51:14;3;3;
64138;PMS5003;50435;43.700;-79.318;2022-12-04T10:53:43;3;3;
64138;PMS5003;50435;43.700;-79.318;2022-12-04T10:56:13;5;5;
64138;PMS5003;50435;43.700;-79.318;2022-12-04T10:58:42;4;4;
64138;PMS5003;50435;43.700;-79.318;2022-12-04T11:01:20;4;4;
64138;PMS5003;50435;43.700;-79.318;2022-12-04T11:03:53;6;6;
64138;PMS5003;50435;43.700;-79.318;2022-12-04T11:06:25;4;3;
64138;PMS5003;50435;43.700;-79.318;2022-12-04T11:08:54;6;6;
64138;PMS5003;50435;43.700;-79.318;2022-12-04T11:11:23;5;5;
64138;PMS5003;50435;43.700;-79.318;2022-12-04T11:14:01;6;6;
64138;PMS5003;50435;43.700;-79.318;2022-12-04T11:16:33;3;3;
64138;PMS5003;50435;43.700;-79.318;2022-12-04T11:19:16;9;6;
64138;PMS5003;50435;43.700;-79.318;2022-12-04T11:21:45;5;5;
64138;PMS5003;50435;43.700;-79.318;2022-12-04T11:24:17;10;10;
64138;PMS5003;50435;43.700;-79.318;2022-12-04T11:26:48;4;4;
64138;PMS5003;50435;43.700;-79.318;2022-12-04T11:29:17;6;4;
64138;PMS5003;50435;43.700;-79.318;2022-12-04T11:31:55;5;5;
64138;PMS5003;50435;43.700;-79.318;2022-12-04T11:34:24;4;4;
64138;PMS5003;50435;43.700;-79.318;2022-12-04T11:36:58;4;4;
64138;PMS5003;50435;43.700;-79.318;2022-12-04T11:39:28;6;6;
64138;PMS5003;50435;43.700;-79.318;2022-12-04T11:42:02;5;4;
64138;PMS5003;50435;43.700;-79.318;2022-12-04T11:44:32;6;6;
64138;PMS5003;50435;43.700;-79.318;2022-12-04T11:47:02;5;5;
64138;PMS5003;50435;43.700;-79.318;2022-12-04T11:49:31;6;6;
64138;PMS5003;50435;43.700;-79.318;2022-12-04T11:52:03;6;6;
64138;PMS5003;50435;43.700;-79.318;2022-12-04T11:54:46;4;4;
64138;PMS5003;50435;43.700;-79.318;2022-12-04T11:57:23;4;4;
64138;PMS5003;50435;43.700;-79.318;2022-12-04T12:00:03;4;4;
64138;PMS5003;50435;43.700;-79.318;2022-12-04T12:03:10;5;5;
64138;PMS5003;50435;43.700;-79.318;2022-12-04T12:05:43;6;6;
64138;PMS5003;50435;43.700;-79.318;2022-12-04T12:08:22;6;5;
64138;PMS5003;50435;43.700;-79.318;2022-12-04T12:10:59;8;6;
64138;PMS5003;50435;43.700;-79.318;2022-12-04T12:13:38;8;7;
64138;PMS5003;50435;43.700;-79.318;2022-12-04T12:16:15;7;5;
64138;PMS5003;50435;43.700;-79.318;2022-12-04T12:18:57;6;6;
64138;PMS5003;50435;43.700;-79.318;2022-12-04T12:21:38;8;5;
64138;PMS5003;50435;43.700;-79.318;2022-12-04T12:24:16;5;5;
64138;PMS5003;50435;43.700;-79.318;2022-12-04T12:26:51;6;6;
64138;PMS5003;50435;43.700;-79.318;2022-12-04T12:29:32;8;8;
64138;PMS5003;50435;43.700;-79.318;2022-12-04T12:32:11;5;5;
64138;PMS5003;50435;43.700;-79.318;2022-12-04T12:34:46;8;8;
64138;PMS5003;50435;43.700;-79.318;2022-12-04T12:37:58;7;7;
64138;PMS5003;50435;43.700;-79.318;2022-12-04T12:38:09;7;7;
64138;PMS5003;50435;43.700;-79.318;2022-12-04T12:40:42;5;5;
64138;PMS5003;50435;43.700;-79.318;2022-12-04T12:43:15;9;9;
64138;PMS5003;50435;43.700;-79.318;2022-12-04T12:45:50;5;5;
64138;PMS5003;50435;43.700;-79.318;2022-12-04T12:48:24;11;7;
64138;PMS5003;50435;43.700;-79.318;2022-12-04T12:50:55;8;8;
64138;PMS5003;50435;43.700;-79.318;2022-12-04T12:53:28;7;5;
64138;PMS5003;50435;43.700;-79.318;2022-12-04T12:56:02;5;5;
64138;PMS5003;50435;43.700;-79.318;2022-12-04T12:58:34;8;4;
64138;PMS5003;50435;43.700;-79.318;2022-12-04T13:01:05;7;5;
64138;PMS5003;50435;43.700;-79.318;2022-12-04T13:03:39;8;8;
64138;PMS5003;50435;43.700;-79.318;2022-12-04T13:06:16;8;8;
64138;PMS5003;50435;43.700;-79.318;2022-12-04T13:08:50;7;7;
64138;PMS5003;50435;43.700;-79.318;2022-12-04T13:11:24;8;8;
64138;PMS5003;50435;43.700;-79.318;2022-12-04T13:13:55;9;8;
64138;PMS5003;50435;43.700;-79.318;2022-12-04T13:16:24;7;5;
64138;PMS5003;50435;43.700;-79.318;2022-12-04T13:19:07;10;9;
64138;PMS5003;50435;43.700;-79.318;2022-12-04T13:21:41;7;7;
64138;PMS5003;50435;43.700;-79.318;2022-12-04T13:25:22;7;7;
64138;PMS5003;50435;43.700;-79.318;2022-12-04T13:28:02;9;8;
64138;PMS5003;50435;43.700;-79.318;2022-12-04T13:30:43;8;8;
64138;PMS5003;50435;43.700;-79.318;2022-12-04T13:33:36;8;7;
64138;PMS5003;50435;43.700;-79.318;2022-12-04T13:36:21;5;5;
64138;PMS5003;50435;43.700;-79.318;2022-12-04T13:40:28;7;7;
64138;PMS5003;50435;43.700;-79.318;2022-12-04T13:43:16;8;8;
64138;PMS5003;50435;43.700;-79.318;2022-12-04T13:45:52;9;9;
64138;PMS5003;50435;43.700;-79.318;2022-12-04T13:48:30;9;7;
64138;PMS5003;50435;43.700;-79.318;2022-12-04T13:51:00;11;10;
64138;PMS5003;50435;43.700;-79.318;2022-12-04T13:53:33;8;8;
64138;PMS5003;50435;43.700;-79.318;2022-12-04T13:56:03;10;8;
64138;PMS5003;50435;43.700;-79.318;2022-12-04T13:58:31;8;8;
64138;PMS5003;50435;43.700;-79.318;2022-12-04T14:01:00;8;8;
64138;PMS5003;50435;43.700;-79.318;2022-12-04T14:03:32;8;8;
64138;PMS5003;50435;43.700;-79.318;2022-12-04T14:06:17;11;8;
64138;PMS5003;50435;43.700;-79.318;2022-12-04T14:08:52;8;8;
64138;PMS5003;50435;43.700;-79.318;2022-12-04T14:11:22;10;10;
64138;PMS5003;50435;43.700;-79.318;2022-12-04T14:13:52;8;8;
64138;PMS5003;50435;43.700;-79.318;2022-12-04T14:16:23;7;7;
64138;PMS5003;50435;43.700;-79.318;2022-12-04T14:18:55;10;8;
64138;PMS5003;50435;43.700;-79.318;2022-12-04T14:21:25;9;9;
64138;PMS5003;50435;43.700;-79.318;2022-12-04T14:24:13;8;8;
64138;PMS5003;50435;43.700;-79.318;2022-12-04T14:26:47;10;9;
64138;PMS5003;50435;43.700;-79.318;2022-12-04T14:29:24;6;6;
64138;PMS5003;50435;43.700;-79.318;2022-12-04T14:32:05;9;9;
64138;PMS5003;50435;43.700;-79.318;2022-12-04T14:34:39;8;8;
64138;PMS5003;50435;43.700;-79.318;2022-12-04T14:39:59;8;8;
64138;PMS5003;50435;43.700;-79.318;2022-12-04T14:42:31;9;8;
64138;PMS5003;50435;43.700;-79.318;2022-12-04T14:45:03;6;6;
64138;PMS5003;50435;43.700;-79.318;2022-12-04T14:47:42;9;9;
64138;PMS5003;50435;43.700;-79.318;2022-12-04T14:50:26;6;6;
64138;PMS5003;50435;43.700;-79.318;2022-12-04T14:53:02;10;9;
64138;PMS5003;50435;43.700;-79.318;2022-12-04T14:55:45;6;6;
64138;PMS5003;50435;43.700;-79.318;2022-12-04T14:58:22;9;9;
64138;PMS5003;50435;43.700;-79.318;2022-12-04T15:00:50;6;6;
64138;PMS5003;50435;43.700;-79.318;2022-12-04T15:03:19;8;8;
64138;PMS5003;50435;43.700;-79.318;2022-12-04T15:05:48;6;6;
64138;PMS5003;50435;43.700;-79.318;2022-12-04T15:08:16;9;8;
64138;PMS5003;50435;43.700;-79.318;2022-12-04T15:10:47;10;9;
64138;PMS5003;50435;43.700;-79.318;2022-12-04T15:13:24;9;9;
64138;PMS5003;50435;43.700;-79.318;2022-12-04T15:15:52;6;6;
64138;PMS5003;50435;43.700;-79.318;2022-12-04T15:18:19;11;10;
64138;PMS5003;50435;43.700;-79.318;2022-12-04T15:20:52;8;8;
64138;PMS5003;50435;43.700;-79.318;2022-12-04T15:23:23;11;11;
64138;PMS5003;50435;43.700;-79.318;2022-12-04T15:25:55;10;10;
64138;PMS5003;50435;43.700;-79.318;2022-12-04T15:28:27;12;10;
64138;PMS5003;50435;43.700;-79.318;2022-12-04T15:30:59;6;6;
64138;PMS5003;50435;43.700;-79.318;2022-12-04T15:33:32;11;10;
64138;PMS5003;50435;43.700;-79.318;2022-12-04T15:36:03;8;8;
64138;PMS5003;50435;43.700;-79.318;2022-12-04T15:38:33;9;9;
64138;PMS5003;50435;43.700;-79.318;2022-12-04T15:41:02;11;11;
64138;PMS5003;50435;43.700;-79.318;2022-12-04T15:43:30;11;9;
64138;PMS5003;50435;43.700;-79.318;2022-12-04T15:45:58;10;10;
64138;PMS5003;50435;43.700;-79.318;2022-12-04T15:48:26;9;8;
64138;PMS5003;50435;43.700;-79.318;2022-12-04T15:50:56;9;9;
64138;PMS5003;50435;43.700;-79.318;2022-12-04T15:53:27;11;10;
64138;PMS5003;50435;43.700;-79.318;2022-12-04T15:55:58;10;10;
64138;PMS5003;50435;43.700;-79.318;2022-12-04T15:58:28;11;10;
64138;PMS5003;50435;43.700;-79.318;2022-12-04T16:00:58;15;13;
64138;PMS5003;50435;43.700;-79.318;2022-12-04T16:03:27;9;9;
64138;PMS5003;50435;43.700;-79.318;2022-12-04T16:06:04;11;11;
64138;PMS5003;50435;43.700;-79.318;2022-12-04T16:08:35;9;9;
64138;PMS5003;50435;43.700;-79.318;2022-12-04T16:11:05;11;11;
64138;PMS5003;50435;43.700;-79.318;2022-12-04T16:13:48;13;10;
64138;PMS5003;50435;43.700;-79.318;2022-12-04T16:16:27;11;10;
64138;PMS5003;50435;43.700;-79.318;2022-12-04T16:18:55;11;11;
64138;PMS5003;50435;43.700;-79.318;2022-12-04T16:21:25;9;9;
64138;PMS5003;50435;43.700;-79.318;2022-12-04T16:23:59;10;10;
64138;PMS5003;50435;43.700;-79.318;2022-12-04T16:26:27;11;11;
64138;PMS5003;50435;43.700;-79.318;2022-12-04T16:28:55;10;9;
64138;PMS5003;50435;43.700;-79.318;2022-12-04T16:31:22;14;10;
64138;PMS5003;50435;43.700;-79.318;2022-12-04T16:33:50;11;11;
64138;PMS5003;50435;43.700;-79.318;2022-12-04T16:36:18;11;10;
64138;PMS5003;50435;43.700;-79.318;2022-12-04T16:38:46;10;10;
64138;PMS5003;50435;43.700;-79.318;2022-12-04T16:41:13;9;9;
64138;PMS5003;50435;43.700;-79.318;2022-12-04T16:43:42;11;10;